Метеостанция


АнтоновUKKM 232100Z AUTO 23003MPS 9000 ///090/// 12/11 Q1011
БориспольUKBB 232100Z 23003MPS CAVOK 12/11 Q1011 R88/290050 NOSIG
ДнепропетровскUKDD 232100Z 25003MPS CAVOK 13/09 Q1013 R26/210270 NOSIG
ДонецкNo METAR available for UKCC.
ЖуляныUKKK 232100Z 26004MPS CAVOK 12/10 Q1011 R26/290058 NOSIG
Запорожье(Мокрая)UKDE 232100Z 21003MPS CAVOK 16/08 Q1013 R02/CLRD70 NOSIG
Ивано-ФранковскUKLI 232100Z 25003MPS 9999 SCT040 BKN100 12/11 Q1017 R28/290065 NOSIG
Кривой РогUKDR 232100Z 23002MPS CAVOK 12/09 Q1014 R36/19//60 NOSIG
ЛуганскNo METAR available for UKCW.
ЛьвовUKLL 232100Z 26002MPS CAVOK 12/10 Q1017 R31/CLRD// NOSIG
МариупольNo METAR available for UKCM.
НиколаевUKON 231700Z 26003MPS 220V310 9999 FEW033CB SCT100 20/09 Q1013 NOSIG
ОдессаUKOO 232100Z 28002MPS CAVOK 14/12 Q1016 R34/190058 NOSIG
РовноUKLR 231500Z 27005MPS 2600 -SHRA FEW014 SCT014CB BKN100 15/12 Q1012 R29/090070 NOSIG
СимферопольNo METAR available for UKFF.
УжгородUKLU 231900Z 00000MPS 9999 SCT043 14/11 Q1018 NOSIG
ХарьковUKHH 232100Z 22002MPS CAVOK 14/12 Q1011 R07/0///66 NOSIG
ЧеркассыNo METAR available for UKKE.
ЧерновцыUKLN 231930Z 27002MPS 220V350 9999 FEW033CB SCT100 15/09 Q1017 R33/09//70 TEMPO 32007G12MPS 2100 -TSRA BKN007 BKN020CB
Скачать:
Скачать этот файл (Metar_шпаргалка.jpg)Расшифровка METAR[ ]4799 Кб
Вся информация, которая имеется в использовании на сайте и доступная для скачивания, получена исключительно из открытых источников информации сети Интернет, всякое совпадение с данными, имеющими ограничения в доступе, случайное и не является преднамеренным.